Time;durP1;ratioP1;P1;durP2;ratioP2;P2;SDS_P1;SDS_P2;PMS_P1;PMS_P2;Temp;Humidity;BMP_temperature;BMP_pressure;BME280_temperature;BME280_humidity;BME280_pressure;Samples;Min_cycle;Max_cycle;Signal;HPM_P1;HPM_P2
2021/11/14 00:01:59;;;;;;;48.50;25.90;;;;;;;4.39;77.23;100764.56;5067849;28;20044;-21
2021/11/14 00:04:24;;;;;;;48.50;24.58;;;;;;;4.31;78.36;100761.91;5067590;28;20032;-21
2021/11/14 00:06:50;;;;;;;49.03;25.63;;;;;;;4.25;78.13;100757.25;5049673;28;20490;-21
2021/11/14 00:09:15;;;;;;;50.65;25.42;;;;;;;4.22;78.49;100758.38;5067920;28;20041;-21
2021/11/14 00:11:41;;;;;;;46.72;25.25;;;;;;;4.50;77.45;100736.19;5067739;28;20040;-21
2021/11/14 00:14:06;;;;;;;50.08;25.05;;;;;;;4.72;77.04;100754.03;5067406;28;20063;-21
2021/11/14 00:16:32;;;;;;;54.75;26.35;;;;;;;4.68;77.14;100757.16;5032803;28;20036;-21
2021/11/14 00:18:58;;;;;;;52.75;26.48;;;;;;;4.52;78.05;100758.81;5067613;28;20103;-21
2021/11/14 00:21:25;;;;;;;51.15;25.98;;;;;;;4.39;78.67;100753.16;5067649;28;20770;-21
2021/11/14 00:23:51;;;;;;;51.00;25.05;;;;;;;4.58;78.00;100746.75;5067627;28;20032;-21
2021/11/14 00:26:16;;;;;;;51.67;26.05;;;;;;;4.48;78.92;100754.00;5049223;28;20507;-21
2021/11/14 00:28:42;;;;;;;49.92;25.08;;;;;;;4.59;78.27;100738.66;5067687;28;20043;-20
2021/11/14 00:31:09;;;;;;;51.08;24.20;;;;;;;4.79;78.47;100760.31;5049677;28;20028;-21
2021/11/14 00:33:35;;;;;;;46.05;23.48;;;;;;;4.48;79.49;100746.09;5067813;28;20028;-21
2021/11/14 00:36:01;;;;;;;43.10;24.00;;;;;;;4.73;78.41;100745.13;5067384;28;20056;-21
2021/11/14 00:38:26;;;;;;;46.90;23.15;;;;;;;4.97;77.48;100767.28;5067301;28;20032;-21
2021/11/14 00:40:52;;;;;;;45.90;24.05;;;;;;;4.97;78.09;100756.69;5067283;28;20037;-21
2021/11/14 00:43:18;;;;;;;43.70;23.10;;;;;;;5.20;76.47;100756.84;5067893;28;20028;-21
2021/11/14 00:45:46;;;;;;;44.50;22.20;;;;;;;5.06;76.58;100760.16;5070804;28;20081;-20
2021/11/14 00:48:15;;;;;;;;;;;;;;;5.28;76.59;100763.97;5053759;28;20025;-21
2021/11/14 00:50:43;;;;;;;40.75;21.30;;;;;;;5.09;77.13;100763.31;5070717;28;19915;-20
2021/11/14 00:53:10;;;;;;;41.70;21.05;;;;;;;4.95;77.00;100758.69;5070969;28;20028;-21
2021/11/14 00:55:36;;;;;;;37.22;20.08;;;;;;;5.24;77.26;100756.34;5070664;28;20029;-21
2021/11/14 00:58:01;;;;;;;38.75;20.70;;;;;;;5.29;76.53;100757.66;5070673;28;20044;-21
2021/11/14 01:00:27;;;;;;;38.70;20.67;;;;;;;5.32;77.12;100754.69;5052541;28;20027;-21
2021/11/14 01:02:53;;;;;;;38.78;20.67;;;;;;;5.15;76.79;100738.84;5070656;28;20415;-21
2021/11/14 01:05:18;;;;;;;41.90;20.63;;;;;;;5.20;76.58;100752.38;5052964;28;20028;-21
2021/11/14 01:07:44;;;;;;;39.15;20.27;;;;;;;4.97;77.96;100751.41;5070772;28;20036;-21
2021/11/14 01:10:11;;;;;;;37.67;19.23;;;;;;;4.70;79.79;100726.97;5070419;28;20107;-21
2021/11/14 01:12:37;;;;;;;37.20;20.73;;;;;;;4.95;78.66;100737.53;5070611;28;20037;-21
2021/11/14 01:15:03;;;;;;;36.20;19.25;;;;;;;5.09;77.82;100739.50;5052561;28;20059;-21
2021/11/14 01:17:29;;;;;;;37.70;20.45;;;;;;;5.49;76.54;100750.19;5052565;28;20108;-21
2021/11/14 01:19:54;;;;;;;37.28;20.30;;;;;;;5.44;76.52;100729.53;5052257;28;20033;-21
2021/11/14 01:22:19;;;;;;;40.33;20.38;;;;;;;5.24;77.27;100747.59;5069899;28;20037;-21
2021/11/14 01:24:45;;;;;;;39.63;20.80;;;;;;;5.54;76.08;100727.53;5070227;28;20039;-21
2021/11/14 01:27:10;;;;;;;42.40;20.35;;;;;;;5.64;75.74;100730.81;5052187;28;20047;-21
2021/11/14 01:29:36;;;;;;;42.78;21.45;;;;;;;5.44;77.16;100732.19;5052241;28;20029;-21
2021/11/14 01:32:01;;;;;;;44.15;22.77;;;;;;;5.37;77.20;100720.63;5069991;28;20042;-21
2021/11/14 01:34:27;;;;;;;40.58;21.58;;;;;;;5.64;76.47;100741.41;5069965;28;20407;-21
2021/11/14 01:36:52;;;;;;;39.53;21.08;;;;;;;5.47;76.83;100742.41;5069938;28;20044;-21
2021/11/14 01:39:18;;;;;;;48.17;22.75;;;;;;;5.23;79.05;100754.72;5052235;28;20036;-21
2021/11/14 01:41:43;;;;;;;42.00;22.10;;;;;;;4.96;80.60;100749.75;5069723;28;20059;-21
2021/11/14 01:44:10;;;;;;;43.15;22.85;;;;;;;4.74;80.99;100740.66;5069739;28;20090;-21
2021/11/14 01:46:36;;;;;;;41.03;21.05;;;;;;;4.51;82.40;100737.81;5070040;28;20077;-21
2021/11/14 01:49:01;;;;;;;46.65;22.67;;;;;;;4.62;82.40;100742.81;5069925;28;20036;-21
2021/11/14 01:51:27;;;;;;;38.47;21.27;;;;;;;4.67;83.21;100735.19;5068703;28;20145;-21
2021/11/14 01:53:52;;;;;;;45.85;23.55;;;;;;;5.42;78.98;100729.72;5069897;28;20036;-21
2021/11/14 01:56:18;;;;;;;42.17;21.67;;;;;;;5.45;79.10;100747.06;5069055;28;20397;-21
2021/11/14 01:58:44;;;;;;;45.92;23.10;;;;;;;5.69;78.08;100750.66;5069954;28;20032;-21
2021/11/14 02:01:23;;;;;;;42.08;21.45;;;;;;;5.69;78.07;100748.00;5051662;28;20032;-21
2021/11/14 02:03:54;;;;;;;43.55;21.00;;;;;;;5.18;80.38;100737.69;5069725;28;20042;-21
2021/11/14 02:06:22;;;;;;;40.90;21.17;;;;;;;5.32;80.71;100725.59;5069001;28;20029;-20
2021/11/14 02:08:47;;;;;;;39.58;21.08;;;;;;;5.60;78.64;100715.47;5069120;28;20086;-21
2021/11/14 02:11:14;;;;;;;37.97;19.60;;;;;;;5.51;78.87;100719.94;5069310;28;20048;-21
2021/11/14 02:13:41;;;;;;;36.50;19.85;;;;;;;5.64;78.09;100701.72;5069155;28;20110;-21
2021/11/14 02:16:06;;;;;;;35.10;19.05;;;;;;;5.80;77.16;100726.44;5069138;28;20037;-21
2021/11/14 02:18:32;;;;;;;40.17;19.90;;;;;;;5.62;78.28;100730.16;5069026;28;20033;-21
2021/11/14 02:20:57;;;;;;;37.67;20.85;;;;;;;5.24;80.42;100732.53;5034604;28;20024;-20
2021/11/14 02:23:23;;;;;;;40.30;20.33;;;;;;;5.10;80.64;100712.06;5069033;28;20045;-21
2021/11/14 02:25:49;;;;;;;41.05;20.02;;;;;;;5.04;80.32;100732.06;5069136;28;20028;-20
2021/11/14 02:28:16;;;;;;;38.47;19.52;;;;;;;4.99;81.27;100721.16;5069048;28;20025;-21
2021/11/14 02:30:41;;;;;;;36.22;18.05;;;;;;;5.19;80.44;100724.31;5069010;28;20038;-21
2021/11/14 02:33:07;;;;;;;35.55;19.92;;;;;;;5.37;78.78;100723.25;5068977;28;20044;-22
2021/11/14 02:35:34;;;;;;;39.40;18.50;;;;;;;5.22;78.55;100731.88;5069008;28;20091;-20
2021/11/14 02:38:00;;;;;;;37.72;19.38;;;;;;;5.31;78.22;100721.28;5068985;28;20089;-21
2021/11/14 02:40:25;;;;;;;37.50;19.42;;;;;;;5.64;76.80;100720.22;5050818;28;20020;-21
2021/11/14 02:42:51;;;;;;;35.05;18.77;;;;;;;5.21;78.22;100724.13;5068553;28;20378;-21
2021/11/14 02:45:19;;;;;;;35.13;19.08;;;;;;;5.19;78.85;100745.47;5068471;28;20036;-21
2021/11/14 02:47:45;;;;;;;35.22;18.50;;;;;;;5.10;79.31;100735.88;5068726;28;20033;-21
2021/11/14 02:50:11;;;;;;;42.88;21.67;;;;;;;5.31;78.68;100743.28;5068256;28;20111;-21
2021/11/14 02:52:36;;;;;;;41.03;21.48;;;;;;;5.27;79.15;100741.13;5068550;28;20044;-21
2021/11/14 02:55:03;;;;;;;41.20;21.13;;;;;;;5.37;78.86;100747.06;5050639;28;20033;-20
2021/11/14 02:57:29;;;;;;;40.13;20.40;;;;;;;5.56;77.43;100733.47;5068415;28;20090;-21
2021/11/14 02:59:55;;;;;;;39.58;19.25;;;;;;;5.73;77.10;100741.38;5050549;28;20095;-21
2021/11/14 03:02:20;;;;;;;36.03;19.45;;;;;;;5.94;75.92;100724.91;5068265;28;20028;-21
2021/11/14 03:04:46;;;;;;;37.97;19.42;;;;;;;5.56;77.57;100735.31;5068475;28;20625;-21
2021/11/14 03:07:12;;;;;;;42.55;21.27;;;;;;;5.63;78.13;100741.56;5067966;28;20121;-21
2021/11/14 03:09:38;;;;;;;36.53;20.48;;;;;;;5.79;77.09;100741.50;5068383;28;20044;-21
2021/11/14 03:12:04;;;;;;;36.67;18.45;;;;;;;5.85;77.15;100737.34;5068337;28;20036;-21
2021/11/14 03:14:29;;;;;;;40.80;20.58;;;;;;;5.80;77.49;100742.31;5067788;28;20059;-21
2021/11/14 03:16:55;;;;;;;39.08;19.95;;;;;;;5.63;77.46;100721.22;5068168;28;20412;-21
2021/11/14 03:19:20;;;;;;;38.63;20.88;;;;;;;5.81;77.01;100734.22;5068100;28;20107;-21
2021/11/14 03:21:48;;;;;;;38.40;20.80;;;;;;;5.91;77.37;100728.72;5050214;28;20043;-21
2021/11/14 03:24:13;;;;;;;37.17;20.98;;;;;;;5.82;77.61;100740.34;5067981;28;20032;-23
2021/11/14 03:26:39;;;;;;;37.38;20.58;;;;;;;6.10;77.02;100732.00;5050534;28;20066;-20
2021/11/14 03:29:04;;;;;;;38.88;19.73;;;;;;;5.83;77.67;100732.22;5068241;28;20497;-21
2021/11/14 03:31:30;;;;;;;42.45;21.45;;;;;;;5.89;77.85;100733.38;5050425;28;20024;-21
2021/11/14 03:33:57;;;;;;;42.30;22.05;;;;;;;5.79;77.62;100735.41;5068102;28;20037;-21
2021/11/14 03:36:22;;;;;;;47.55;23.55;;;;;;;5.86;78.07;100723.13;5049944;28;20027;-21
2021/11/14 03:38:50;;;;;;;45.97;24.60;;;;;;;5.72;78.08;100737.06;5050315;28;20028;-21
2021/11/14 03:41:18;;;;;;;51.40;24.52;;;;;;;5.47;79.45;100734.47;5068249;28;20040;-21
2021/11/14 03:43:43;;;;;;;49.67;25.13;;;;;;;5.28;80.76;100745.44;5068079;28;20124;-20
2021/11/14 03:46:09;;;;;;;47.60;25.58;;;;;;;5.44;79.96;100742.78;5050165;28;20291;-21
2021/11/14 03:48:36;;;;;;;55.35;27.40;;;;;;;5.58;79.49;100728.03;5067879;28;20036;-21
2021/11/14 03:51:01;;;;;;;57.10;30.85;;;;;;;5.66;79.33;100735.09;5068081;28;20037;-21
2021/11/14 03:53:27;;;;;;;61.35;30.65;;;;;;;5.69;79.59;100740.06;5068041;28;20047;-21
2021/11/14 03:55:52;;;;;;;64.93;34.00;;;;;;;5.55;79.76;100723.06;5067779;28;20033;-21
2021/11/14 03:58:18;;;;;;;63.53;34.30;;;;;;;5.82;79.76;100735.03;5067584;28;20024;-21
2021/11/14 04:00:46;;;;;;;63.63;33.03;;;;;;;5.99;78.04;100720.78;5049802;28;20489;-21
2021/11/14 04:03:11;;;;;;;;;;;;;;;6.09;77.87;100730.31;5068625;28;20033;-21
2021/11/14 04:05:37;;;;;;;67.63;34.85;;;;;;;5.82;78.96;100721.81;5067810;28;19909;-21
2021/11/14 04:08:08;;;;;;;73.70;35.97;;;;;;;6.34;76.99;100718.59;5067789;28;20040;-21
2021/11/14 04:10:33;;;;;;;80.55;40.45;;;;;;;6.29;77.00;100725.41;5067675;28;20111;-21
2021/11/14 04:13:00;;;;;;;72.10;40.17;;;;;;;5.96;78.48;100720.28;5067931;28;20538;-21
2021/11/14 04:15:25;;;;;;;68.43;37.13;;;;;;;5.86;78.98;100736.34;5067681;28;20108;-20
2021/11/14 04:17:55;;;;;;;64.10;33.90;;;;;;;5.58;81.30;100739.44;5069375;28;20123;-21
2021/11/14 04:20:21;;;;;;;62.70;33.20;;;;;;;5.59;81.12;100741.06;5071230;28;20028;-21
2021/11/14 04:22:47;;;;;;;65.53;33.97;;;;;;;5.48;82.24;100741.44;5053761;28;20025;-21
2021/11/14 04:25:12;;;;;;;70.93;35.80;;;;;;;5.71;81.10;100722.19;5071378;28;20058;-21
2021/11/14 04:27:38;;;;;;;68.75;33.85;;;;;;;6.07;79.86;100732.31;5071394;28;20040;-20
2021/11/14 04:30:04;;;;;;;60.05;30.80;;;;;;;6.07;79.47;100738.47;5071255;28;20028;-21
2021/11/14 04:32:30;;;;;;;65.60;31.00;;;;;;;5.61;80.49;100728.50;5071064;28;20119;-21
2021/11/14 04:34:55;;;;;;;63.28;30.75;;;;;;;6.04;79.76;100738.78;5071372;28;20485;-22
2021/11/14 04:37:20;;;;;;;65.45;29.65;;;;;;;6.28;78.72;100735.19;5071850;28;20037;-21
2021/11/14 04:39:46;;;;;;;63.30;28.70;;;;;;;6.36;78.12;100729.84;5071025;28;20519;-21
2021/11/14 04:42:11;;;;;;;61.50;29.33;;;;;;;6.09;78.47;100719.72;5070849;28;20040;-21
2021/11/14 04:44:37;;;;;;;60.45;27.70;;;;;;;6.00;79.63;100726.91;5071032;28;20103;-21
2021/11/14 04:47:03;;;;;;;55.20;26.45;;;;;;;5.86;79.56;100715.16;5070883;28;20039;-21
2021/11/14 04:49:28;;;;;;;57.05;28.40;;;;;;;6.02;80.01;100738.13;5071383;28;20508;-21
2021/11/14 04:51:54;;;;;;;57.78;28.10;;;;;;;5.83;80.64;100736.72;5071156;28;20777;-20
2021/11/14 04:54:19;;;;;;;62.83;28.65;;;;;;;6.02;80.41;100731.00;5070890;28;20511;-21
2021/11/14 04:56:46;;;;;;;68.25;31.00;;;;;;;5.93;80.68;100710.84;5070865;28;20047;-21
2021/11/14 04:59:11;;;;;;;69.28;29.48;;;;;;;6.30;79.55;100738.50;5071277;28;20515;-21
2021/11/14 05:01:37;;;;;;;64.82;29.75;;;;;;;6.11;78.92;100709.78;5070337;28;20025;-21
2021/11/14 05:04:02;;;;;;;67.72;30.65;;;;;;;5.80;80.97;100705.28;5053247;28;20032;-21
2021/11/14 05:06:28;;;;;;;68.90;31.23;;;;;;;6.05;79.97;100737.81;5070359;28;20032;-21
2021/11/14 05:08:53;;;;;;;65.13;30.63;;;;;;;5.79;81.26;100724.81;5070490;28;20033;-21
2021/11/14 05:11:19;;;;;;;65.65;31.80;;;;;;;6.26;80.05;100739.84;5071177;28;20495;-22
2021/11/14 05:13:44;;;;;;;85.72;39.97;;;;;;;6.16;80.39;100740.06;5052495;28;20051;-21
2021/11/14 05:16:10;;;;;;;82.78;40.95;;;;;;;6.03;80.60;100723.91;5070173;28;20032;-21
2021/11/14 05:18:35;;;;;;;93.32;44.80;;;;;;;6.26;79.67;100747.78;5052660;28;20827;-20
2021/11/14 05:21:01;;;;;;;112.35;50.35;;;;;;;6.18;80.29;100740.72;5070244;28;20020;-21
2021/11/14 05:23:26;;;;;;;91.70;43.15;;;;;;;5.71;82.24;100744.19;5070224;28;20036;-21
2021/11/14 05:25:52;;;;;;;86.20;39.55;;;;;;;5.95;80.40;100735.38;5070422;28;20037;-20
2021/11/14 05:28:17;;;;;;;72.97;32.75;;;;;;;5.71;81.98;100732.78;5052401;28;20029;-21
2021/11/14 05:30:43;;;;;;;71.90;32.33;;;;;;;6.07;80.60;100749.06;5069408;28;20116;-21
2021/11/14 05:33:08;;;;;;;68.60;32.97;;;;;;;5.88;80.12;100755.53;5070076;28;20036;-21
2021/11/14 05:35:34;;;;;;;86.72;41.22;;;;;;;5.55;82.28;100760.91;5070091;28;20063;-21
2021/11/14 05:37:59;;;;;;;87.68;42.83;;;;;;;5.69;82.23;100762.06;5069886;28;20035;-21
2021/11/14 05:40:25;;;;;;;87.72;42.78;;;;;;;5.60;82.62;100740.09;5069661;28;20035;-20
2021/11/14 05:42:50;;;;;;;86.20;36.55;;;;;;;5.88;82.35;100765.31;5069938;28;20528;-21
2021/11/14 05:45:16;;;;;;;67.78;31.05;;;;;;;5.78;82.23;100760.19;5069852;28;20083;-22
2021/11/14 05:47:41;;;;;;;66.25;30.60;;;;;;;5.74;81.94;100770.31;5070164;28;20063;-21
2021/11/14 05:50:07;;;;;;;58.25;27.65;;;;;;;5.56;83.18;100762.59;5051947;28;20025;-21
2021/11/14 05:52:33;;;;;;;66.00;28.50;;;;;;;5.78;82.61;100769.00;5051914;28;20706;-21
2021/11/14 05:54:59;;;;;;;67.97;29.48;;;;;;;5.80;81.90;100758.22;5069853;28;20032;-21
2021/11/14 05:57:24;;;;;;;60.05;29.50;;;;;;;5.76;82.63;100772.78;5069657;28;20043;-21
2021/11/14 06:02:37;;;;;;;;;;;;;;;6.17;81.21;100776.16;5069857;28;20043;-21
2021/11/14 06:05:16;;;;;;;61.97;28.42;;;;;;;5.88;82.21;100781.19;5069472;28;19909;-21
2021/11/14 06:07:43;;;;;;;55.75;28.45;;;;;;;5.78;82.78;100776.06;5069557;28;20020;-20
2021/11/14 06:10:09;;;;;;;57.65;29.13;;;;;;;6.08;82.63;100771.06;5069309;28;20488;-20
2021/11/14 06:12:35;;;;;;;59.03;29.13;;;;;;;6.38;81.13;100780.03;5051565;28;20036;-23
2021/11/14 06:15:00;;;;;;;61.05;30.52;;;;;;;6.46;81.15;100774.69;5069370;28;20052;-21
2021/11/14 06:17:26;;;;;;;81.47;46.65;;;;;;;6.50;80.95;100780.44;5051367;28;20032;-20
2021/11/14 06:19:51;;;;;;;53.17;27.50;;;;;;;6.66;80.15;100790.97;5068838;28;20074;-21
2021/11/14 06:22:17;;;;;;;52.00;26.50;;;;;;;6.81;79.60;100794.50;5068950;28;20101;-21
2021/11/14 06:24:43;;;;;;;49.40;25.35;;;;;;;6.78;79.64;100794.00;5069705;28;20032;-21
2021/11/14 06:27:08;;;;;;;53.33;26.75;;;;;;;6.84;80.32;100799.47;5069324;28;20025;-21
2021/11/14 06:29:34;;;;;;;58.38;28.20;;;;;;;6.92;79.13;100795.91;5069327;28;20036;-20
2021/11/14 06:31:59;;;;;;;53.67;26.70;;;;;;;6.78;79.29;100794.88;5068969;28;20491;-21
2021/11/14 06:34:25;;;;;;;51.47;25.98;;;;;;;6.93;79.99;100805.53;5068657;28;20488;-21
2021/11/14 06:36:52;;;;;;;50.78;27.08;;;;;;;7.13;79.78;100797.06;5050996;28;20020;-21
2021/11/14 06:39:17;;;;;;;57.20;28.50;;;;;;;6.95;80.49;100800.06;5068937;28;20037;-21
2021/11/14 06:41:43;;;;;;;53.28;26.77;;;;;;;7.08;80.36;100794.16;5067584;28;20028;-21
2021/11/14 06:44:08;;;;;;;59.00;29.13;;;;;;;6.94;81.47;100793.09;5068581;28;20407;-21
2021/11/14 06:46:34;;;;;;;59.38;31.52;;;;;;;6.80;82.14;100803.47;5068768;28;20079;-21
2021/11/14 06:48:59;;;;;;;58.72;29.60;;;;;;;6.70;82.27;100786.97;5068667;28;20047;-21
2021/11/14 06:51:25;;;;;;;58.05;28.98;;;;;;;6.64;81.82;100800.91;5068803;28;20113;-21
2021/11/14 06:53:50;;;;;;;57.85;31.02;;;;;;;6.68;81.98;100802.22;5069215;28;20036;-21
2021/11/14 06:56:16;;;;;;;56.47;29.45;;;;;;;6.70;82.65;100802.88;5068200;28;20400;-21
2021/11/14 06:58:41;;;;;;;58.83;29.85;;;;;;;6.93;81.46;100780.84;5068646;28;20487;-21
2021/11/14 07:01:07;;;;;;;52.75;28.02;;;;;;;7.11;80.21;100785.81;5068399;28;20027;-21
2021/11/14 07:03:32;;;;;;;44.55;25.63;;;;;;;7.12;80.27;100787.47;5068300;28;20545;-21
2021/11/14 07:05:58;;;;;;;54.38;27.02;;;;;;;7.28;79.41;100789.19;5068416;28;20028;-21
2021/11/14 07:08:23;;;;;;;53.85;28.42;;;;;;;7.60;78.79;100783.56;5050444;28;20079;-21
2021/11/14 07:10:49;;;;;;;51.30;25.50;;;;;;;7.34;78.77;100777.84;5068242;28;20025;-20
2021/11/14 07:13:15;;;;;;;53.83;27.52;;;;;;;7.54;78.98;100781.63;5068282;28;20052;-21
2021/11/14 07:15:40;;;;;;;52.53;27.05;;;;;;;7.59;78.23;100795.16;5068278;28;20039;-21
2021/11/14 07:18:06;;;;;;;54.60;27.52;;;;;;;7.67;78.46;100780.19;5068249;28;20078;-21
2021/11/14 07:20:31;;;;;;;51.30;28.13;;;;;;;7.85;78.10;100791.25;5068242;28;20032;-21
2021/11/14 07:22:57;;;;;;;60.80;29.48;;;;;;;7.78;77.65;100783.19;5068388;28;20025;-21
2021/11/14 07:25:22;;;;;;;60.30;29.85;;;;;;;8.00;76.90;100794.72;5068232;28;20507;-22
2021/11/14 07:27:49;;;;;;;59.08;29.92;;;;;;;7.84;77.66;100784.28;5068315;28;20043;-20
2021/11/14 07:30:15;;;;;;;60.22;31.67;;;;;;;7.96;77.23;100798.75;5067976;28;20033;-21
2021/11/14 07:32:41;;;;;;;59.78;30.15;;;;;;;7.90;78.62;100799.47;5050358;28;20047;-21
2021/11/14 07:35:11;;;;;;;59.70;30.65;;;;;;;7.85;77.13;100793.91;5068335;28;20525;-21
2021/11/14 07:37:38;;;;;;;60.47;29.50;;;;;;;7.65;77.51;100781.16;5068175;28;20420;-21
2021/11/14 07:40:05;;;;;;;54.70;30.63;;;;;;;7.68;77.71;100787.94;5067868;28;20551;-22
2021/11/14 07:42:31;;;;;;;55.45;29.83;;;;;;;7.43;78.45;100790.00;5068052;28;20043;-22
2021/11/14 07:44:57;;;;;;;57.47;29.17;;;;;;;7.38;79.11;100792.41;5068309;28;20029;-20
2021/11/14 07:47:22;;;;;;;58.88;28.52;;;;;;;7.47;79.46;100788.66;5068177;28;20032;-21
2021/11/14 07:49:47;;;;;;;58.10;28.13;;;;;;;7.50;78.66;100792.75;5067944;28;20523;-21
2021/11/14 07:52:13;;;;;;;71.38;36.95;;;;;;;7.77;78.91;100796.66;5067928;28;20253;-21
2021/11/14 07:54:39;;;;;;;83.47;39.03;;;;;;;8.01;76.78;100796.38;5071740;28;20032;-21
2021/11/14 07:57:05;;;;;;;63.25;32.53;;;;;;;7.81;78.01;100785.47;5071998;28;20028;-21
2021/11/14 07:59:30;;;;;;;138.13;60.67;;;;;;;8.08;77.77;100806.28;5071833;28;20033;-21
2021/11/14 08:01:56;;;;;;;56.90;29.25;;;;;;;8.02;75.47;100803.34;5071824;28;20044;-21
2021/11/14 08:04:21;;;;;;;61.33;29.13;;;;;;;7.62;77.26;100797.47;5071934;28;20446;-21
2021/11/14 08:06:47;;;;;;;57.22;30.55;;;;;;;7.79;76.47;100800.78;5071749;28;20035;-21
2021/11/14 08:09:12;;;;;;;54.03;27.75;;;;;;;7.85;76.20;100804.53;5071921;28;20369;-21
2021/11/14 08:11:38;;;;;;;62.75;29.83;;;;;;;8.07;75.61;100791.34;5071495;28;20040;-21
2021/11/14 08:14:03;;;;;;;55.47;28.50;;;;;;;8.00;74.90;100778.78;5071388;28;20227;-21
2021/11/14 08:16:29;;;;;;;51.75;27.13;;;;;;;8.34;74.76;100790.66;5071124;28;20036;-21
2021/11/14 08:18:54;;;;;;;51.58;27.63;;;;;;;8.28;74.25;100801.22;5071699;28;20033;-21
2021/11/14 08:21:20;;;;;;;60.50;30.63;;;;;;;8.29;74.72;100800.19;5071475;28;20075;-21
2021/11/14 08:23:45;;;;;;;96.20;65.22;;;;;;;8.66;74.01;100799.22;5071314;28;20090;-21
2021/11/14 08:26:11;;;;;;;71.72;41.67;;;;;;;9.07;72.73;100801.25;5071410;28;20067;-21
2021/11/14 08:28:37;;;;;;;55.63;28.58;;;;;;;9.33;71.03;100805.19;5071250;28;20503;-22
2021/11/14 08:31:02;;;;;;;60.67;33.38;;;;;;;9.39;71.28;100799.09;5071122;28;20036;-22
2021/11/14 08:33:30;;;;;;;54.47;27.42;;;;;;;9.04;70.84;100796.34;5071336;28;20484;-21
2021/11/14 08:35:56;;;;;;;56.22;28.65;;;;;;;9.01;71.22;100794.03;5071209;28;20050;-28
2021/11/14 08:38:23;;;;;;;56.20;28.60;;;;;;;8.67;71.53;100800.88;5071004;28;20111;-21
2021/11/14 08:40:49;;;;;;;57.70;30.58;;;;;;;8.59;72.23;100782.38;5071106;28;20179;-21
2021/11/14 08:43:14;;;;;;;56.28;29.85;;;;;;;9.00;72.15;100805.72;5070975;28;20433;-21
2021/11/14 08:45:40;;;;;;;52.70;28.33;;;;;;;8.75;72.03;100803.41;5053022;28;20035;-21
2021/11/14 08:48:06;;;;;;;59.80;32.22;;;;;;;8.87;72.31;100797.59;5071112;28;20032;-21
2021/11/14 08:50:32;;;;;;;56.28;28.75;;;;;;;8.96;70.68;100788.47;5070759;28;20112;-21
2021/11/14 08:52:57;;;;;;;53.05;28.23;;;;;;;9.15;70.31;100797.66;5052931;28;20107;-21
2021/11/14 08:55:24;;;;;;;55.22;29.50;;;;;;;9.24;71.57;100804.50;5070977;28;20047;-20
2021/11/14 08:57:50;;;;;;;50.00;27.02;;;;;;;9.24;70.28;100776.03;5070615;28;20056;-21
2021/11/14 09:00:18;;;;;;;52.50;28.00;;;;;;;9.17;69.53;100796.44;5052377;28;20029;-21
2021/11/14 09:02:43;;;;;;;49.88;25.58;;;;;;;8.87;70.59;100800.25;5070848;28;20024;-21
2021/11/14 09:05:09;;;;;;;51.90;28.88;;;;;;;8.71;72.11;100774.75;5069779;28;20298;-21
2021/11/14 09:07:34;;;;;;;50.30;27.48;;;;;;;8.88;70.33;100799.25;5070495;28;20043;-21
2021/11/14 09:10:00;;;;;;;54.88;27.20;;;;;;;8.84;71.59;100780.19;5070764;28;20036;-21
2021/11/14 09:12:26;;;;;;;54.05;27.52;;;;;;;9.16;71.80;100778.03;5070304;28;20060;-21
2021/11/14 09:14:51;;;;;;;132.15;63.53;;;;;;;9.45;71.04;100782.34;5070388;28;20080;-22
2021/11/14 09:17:17;;;;;;;102.25;48.83;;;;;;;9.44;70.01;100773.53;5070681;28;20376;-21
2021/11/14 09:19:43;;;;;;;56.25;32.00;;;;;;;9.48;69.72;100776.63;5070470;28;20060;-21
2021/11/14 09:22:09;;;;;;;53.55;28.70;;;;;;;9.45;69.54;100777.81;5069787;28;20035;-21
2021/11/14 09:24:34;;;;;;;53.40;29.55;;;;;;;9.86;69.59;100776.25;5070105;28;20037;-21
2021/11/14 09:27:00;;;;;;;54.42;29.10;;;;;;;10.20;67.46;100774.56;5069736;28;20036;-21
2021/11/14 09:29:25;;;;;;;50.63;27.60;;;;;;;10.08;66.01;100765.50;5070111;28;20481;-22
2021/11/14 09:31:50;;;;;;;51.72;27.77;;;;;;;9.87;67.36;100751.25;5070035;28;20154;-22
2021/11/14 09:34:16;;;;;;;46.83;28.42;;;;;;;10.05;66.73;100762.22;5069866;28;20043;-21
2021/11/14 09:36:42;;;;;;;51.88;26.38;;;;;;;9.71;67.19;100765.72;5070606;28;20036;-21
2021/11/14 09:39:09;;;;;;;52.47;28.40;;;;;;;9.40;69.83;100747.50;5070303;28;20780;-21
2021/11/14 09:41:36;;;;;;;51.17;28.30;;;;;;;9.24;71.03;100770.72;5070201;28;20139;-20
2021/11/14 09:44:01;;;;;;;55.55;27.65;;;;;;;9.42;70.47;100769.44;5052383;28;20097;-21
2021/11/14 09:46:27;;;;;;;52.90;29.52;;;;;;;9.38;68.78;100770.84;5069664;28;20464;-20
2021/11/14 09:48:52;;;;;;;53.65;28.75;;;;;;;9.56;68.53;100770.31;5069925;28;20037;-21
2021/11/14 09:51:18;;;;;;;51.15;26.45;;;;;;;9.68;67.95;100754.63;5069662;28;20024;-21
2021/11/14 09:53:44;;;;;;;52.92;28.85;;;;;;;9.75;67.92;100760.81;5070224;28;20204;-21
2021/11/14 09:56:10;;;;;;;53.58;27.95;;;;;;;9.80;67.20;100763.72;5069531;28;20056;-21
2021/11/14 09:58:36;;;;;;;54.30;27.75;;;;;;;9.50;67.89;100749.78;5069673;28;20415;-20
2021/11/14 10:01:02;;;;;;;49.70;27.30;;;;;;;9.75;67.60;100755.50;5051759;28;20105;-20
2021/11/14 10:03:27;;;;;;;49.17;25.95;;;;;;;9.74;67.09;100753.84;5069465;28;20397;-22
2021/11/14 10:05:53;;;;;;;49.38;26.95;;;;;;;9.77;67.83;100750.81;5069417;28;20420;-21
2021/11/14 10:08:23;;;;;;;49.22;26.88;;;;;;;10.03;66.22;100750.94;5069443;28;20036;-21
2021/11/14 10:10:55;;;;;;;50.28;26.25;;;;;;;9.89;66.99;100727.91;5069218;28;20043;-21
2021/11/14 10:13:21;;;;;;;55.20;28.58;;;;;;;10.19;67.01;100735.59;5051306;28;20056;-21
2021/11/14 10:15:48;;;;;;;51.53;25.60;;;;;;;10.19;66.12;100740.94;5069336;28;20039;-21
2021/11/14 10:18:16;;;;;;;54.28;26.60;;;;;;;10.39;65.74;100731.19;5069223;28;20028;-21
2021/11/14 10:20:42;;;;;;;46.80;25.70;;;;;;;10.74;65.59;100735.56;5035417;28;20492;-20
2021/11/14 10:23:15;;;;;;;46.78;25.08;;;;;;;10.50;65.42;100731.63;5069058;28;20423;-20
2021/11/14 10:25:41;;;;;;;44.75;25.58;;;;;;;10.60;64.78;100711.56;5069284;28;20032;-21
2021/11/14 10:28:07;;;;;;;47.55;25.05;;;;;;;10.28;65.01;100710.41;5051291;28;20754;-21
2021/11/14 10:30:35;;;;;;;59.10;30.20;;;;;;;10.29;65.52;100712.06;5068964;28;20060;-21
2021/11/14 10:33:05;;;;;;;60.70;32.92;;;;;;;10.05;66.74;100714.25;5069403;28;20060;-20
2021/11/14 10:35:31;;;;;;;45.85;25.42;;;;;;;10.00;66.39;100722.00;5051095;28;20095;-21
2021/11/14 10:38:05;;;;;;;48.10;27.63;;;;;;;10.20;66.54;100715.94;5051018;28;20055;-21
2021/11/14 10:40:33;;;;;;;49.63;26.35;;;;;;;10.29;65.34;100714.72;5068317;28;20029;-20
2021/11/14 10:43:00;;;;;;;43.55;23.67;;;;;;;10.10;67.19;100720.81;5050948;28;20040;-21
2021/11/14 10:45:26;;;;;;;47.65;25.75;;;;;;;10.23;65.79;100715.50;5068594;28;20028;-21
2021/11/14 10:47:57;;;;;;;59.60;32.00;;;;;;;10.18;66.99;100717.97;5068612;28;20075;-21
2021/11/14 10:50:26;;;;;;;45.70;25.17;;;;;;;10.10;66.95;100694.16;5068305;28;20031;-20
2021/11/14 10:52:56;;;;;;;48.40;27.63;;;;;;;10.39;67.19;100709.84;5068586;28;20074;-21
2021/11/14 10:55:23;;;;;;;91.63;48.25;;;;;;;10.25;66.36;100710.81;5050901;28;20021;-20
2021/11/14 10:57:49;;;;;;;51.42;25.55;;;;;;;10.21;65.34;100698.91;5068510;28;20032;-20
2021/11/14 11:00:16;;;;;;;57.80;32.55;;;;;;;10.19;66.40;100703.63;5068001;28;20416;-20
2021/11/14 11:02:42;;;;;;;51.50;26.30;;;;;;;10.20;65.47;100689.28;5068886;28;20040;-21
2021/11/14 11:05:09;;;;;;;109.95;49.90;;;;;;;9.90;68.16;100708.22;5068495;28;20578;-21
2021/11/14 11:07:35;;;;;;;66.00;32.15;;;;;;;10.05;67.50;100690.25;5068394;28;20158;-20
2021/11/14 11:10:00;;;;;;;56.47;30.75;;;;;;;9.95;68.30;100705.81;5068660;28;20044;-22
2021/11/14 11:12:27;;;;;;;53.80;27.60;;;;;;;9.90;66.72;100688.75;5067856;28;20044;-20
2021/11/14 11:15:01;;;;;;;49.97;27.55;;;;;;;9.96;66.46;100696.78;5068071;28;20057;-21